Flight Track Log - Related Links

Times and Time Zones

All times are in EDT time to prevent confusion due to time zone crossing. See the C-FHNX flight status page for this flight to view local times or setup timezone preferences in your user account.

Time Position Orientation Groundspeed Altitude Reporting Facility
EDT Latitude Longitude Course Direction KTS MPH feet Rate Location/Type
Wed 09:45:13 PM 51.0667 -114.0333 96° East 50 58 3,600  Level Edmonton Center
Wed 09:46:13 PM 51.1167 -114.0333 360° North 160 184 5,000 1,550 Climbing Edmonton Center
Wed 09:47:13 PM 51.1667 -114.0167 12° North 230 265 6,700 1,750 Climbing Edmonton Center
Wed 09:48:00 PM 51.0833 -113.2149 90° East  Level FlightAware Approximate
Wed 09:48:13 PM 51.2333 -113.9833 17° North 290 334 8,500  Level Edmonton Center
Wed 09:49:00 PM 51.0801 -113.0143 94° East  Level FlightAware Approximate
Wed 09:49:13 PM 51.2000 -113.8667 114° Southeast 310 357 10,800  Level Edmonton Center
Wed 09:50:00 PM 51.0706 -112.8142 94° East  Level FlightAware Approximate
Wed 09:50:13 PM 51.1667 -113.7167 109° East 360 414 12,700  Level Edmonton Center
Wed 09:51:00 PM 51.0618 -112.6142 96° East  Level FlightAware Approximate
Wed 09:51:13 PM 51.1000 -113.5833 128° Southeast 380 437 14,600  Level Edmonton Center
Wed 09:52:13 PM 51.0667 -113.4167 108° East 390 449 16,600 2,050 Climbing Edmonton Center
Wed 09:53:13 PM 51.0667 -113.2500 90° East 390 449 18,700 1,900 Climbing Edmonton Center
Wed 09:54:13 PM 51.0667 -113.0500 90° East 400 460 20,400 1,500 Climbing Edmonton Center
Wed 09:55:13 PM 51.0333 -112.8667 106° East 410 472 21,700 1,250 Climbing Edmonton Center
Wed 09:56:13 PM 51.0333 -112.6667 90° East 440 506 22,900 1,200 Climbing Edmonton Center
Wed 09:57:13 PM 51.0333 -112.4667 90° East 450 518 24,100 1,150 Climbing Edmonton Center
Wed 09:58:13 PM 51.0333 -112.2667 90° East 460 529 25,200 1,050 Climbing Edmonton Center
Wed 09:59:13 PM 51.0167 -112.0500 97° East 470 541 26,200 950 Climbing Edmonton Center
Wed 10:00:13 PM 51.0000 -111.8333 97° East 480 552 27,100 900 Climbing Edmonton Center
Wed 10:01:13 PM 50.9833 -111.6167 97° East 490 564 28,000 1,050 Climbing Edmonton Center
Wed 10:02:13 PM 50.9833 -111.4000 90° East 490 564 29,200 1,050 Climbing Edmonton Center
Wed 10:03:13 PM 50.9667 -111.1833 97° East 490 564 30,100 1,100 Climbing Edmonton Center
Wed 10:04:13 PM 50.9500 -110.9667 97° East 490 564 31,400 1,150 Climbing Edmonton Center
Wed 10:05:13 PM 50.9500 -110.7500 90° East 480 552 32,400 900 Climbing Edmonton Center
Wed 10:06:13 PM 50.9333 -110.5667 98° East 480 552 33,200 800 Climbing Edmonton Center
Wed 10:07:13 PM 50.9167 -110.3500 97° East 470 541 34,000 733 Climbing Edmonton Center
Wed 10:07:43 PM 50.9167 -110.2667 90° East 480 552 34,300 533 Climbing Winnipeg Center
Wed 10:08:43 PM 50.9167 -110.0500 90° East 480 552 34,800 467 Climbing Winnipeg Center
Wed 10:09:13 PM 50.8833 -109.9167 112° Southeast 480 552 35,000 200 Climbing Edmonton Center
Wed 10:09:43 PM 50.9000 -109.8333 72° East 480 552 35,000  Level Winnipeg Center
Wed 10:10:43 PM 50.9000 -109.6333 90° East 490 564 35,000  Level Winnipeg Center
Wed 10:11:13 PM 50.8667 -109.5167 114° Southeast 480 552 35,000  Level Edmonton Center
Wed 10:12:13 PM 50.8667 -109.2667 90° East 480 552 35,000  Level Edmonton Center
Wed 10:13:13 PM 50.8333 -109.0833 106° East 480 552 35,000  Level Edmonton Center
Wed 10:14:13 PM 50.8333 -108.8333 90° East 490 564 35,000  Level Edmonton Center
Wed 10:15:13 PM 50.8167 -108.6500 98° East 490 564 35,000  Level Edmonton Center
Wed 10:16:13 PM 50.8167 -108.4167 90° East 490 564 35,000  Level Edmonton Center
Wed 10:16:43 PM 50.8167 -108.3333 90° East 490 564 35,000  Level Winnipeg Center
Wed 10:17:43 PM 50.8000 -108.1167 97° East 490 564 35,000  Level Winnipeg Center
Wed 10:18:43 PM 50.7833 -107.9000 97° East 490 564 35,000  Level Winnipeg Center
Wed 10:19:43 PM 50.7667 -107.6833 97° East 500 575 35,000  Level Winnipeg Center
Wed 10:20:43 PM 50.7500 -107.4667 97° East 500 575 35,000  Level Winnipeg Center
Wed 10:21:43 PM 50.7500 -107.2500 90° East 500 575 35,000  Level Winnipeg Center
Wed 10:22:13 PM 50.7333 -107.1167 101° East 490 564 35,000  Level Edmonton Center
Wed 10:23:13 PM 50.7000 -106.8833 103° East 490 564 35,000  Level Edmonton Center
Wed 10:23:43 PM 50.7167 -106.8167 68° East 490 564 35,000  Level Winnipeg Center
Wed 10:24:43 PM 50.7000 -106.6000 97° East 500 575 35,000  Level Winnipeg Center
Wed 10:25:13 PM 50.6667 -106.4500 109° East 490 564 35,000  Level Edmonton Center
Wed 10:26:13 PM 50.6500 -106.2333 97° East 490 564 35,000  Level Edmonton Center
Wed 10:26:43 PM 50.6500 -106.1667 90° East 500 575 35,000  Level Winnipeg Center
Wed 10:27:43 PM 50.6333 -105.9500 97° East 500 575 35,000  Level Winnipeg Center
Wed 10:28:43 PM 50.6167 -105.7333 97° East 490 564 35,000  Level Winnipeg Center
Wed 10:29:43 PM 50.6000 -105.5167 97° East 490 564 35,000  Level Winnipeg Center
Wed 10:30:43 PM 50.5833 -105.3000 97° East 490 564 35,000 300 Level Winnipeg Center
Wed 10:31:43 PM 50.5667 -105.1167 98° East 480 552 35,600 600 Climbing Winnipeg Center
Wed 10:32:43 PM 50.5500 -104.9000 97° East 480 552 36,200 500 Climbing Winnipeg Center
Wed 10:33:43 PM 50.5167 -104.6833 104° East 480 552 36,600 400 Climbing Winnipeg Center
Wed 10:34:43 PM 50.5000 -104.5000 98° East 470 541 37,000 200 Climbing Winnipeg Center
Wed 10:35:43 PM 50.4833 -104.2667 96° East 480 552 37,000  Level Winnipeg Center
Wed 10:36:43 PM 50.4667 -104.0667 97° East 480 552 37,000  Level Winnipeg Center
Wed 10:37:43 PM 50.4500 -103.8500 97° East 480 552 37,000  Level Winnipeg Center
Wed 10:38:43 PM 50.4167 -103.6500 105° East 480 552 37,000  Level Winnipeg Center
Wed 10:39:43 PM 50.4000 -103.4333 97° East 480 552 37,000  Level Winnipeg Center
Wed 10:40:43 PM 50.3833 -103.2167 97° East 490 564 37,000  Level Winnipeg Center
Wed 10:41:43 PM 50.3500 -103.0333 106° East 490 564 37,000  Level Winnipeg Center
Wed 10:42:43 PM 50.3333 -102.8167 97° East 490 564 37,000  Level Winnipeg Center
Wed 10:43:43 PM 50.3167 -102.6000 97° East 490 564 37,000  Level Winnipeg Center
Wed 10:44:43 PM 50.2833 -102.3833 103° East 490 564 37,000  Level Winnipeg Center
Wed 10:45:43 PM 50.2667 -102.1833 97° East 490 564 37,000  Level Winnipeg Center
Wed 10:46:43 PM 50.2333 -101.9667 103° East 490 564 37,000  Level Winnipeg Center
Wed 10:47:43 PM 50.2167 -101.7500 97° East 490 564 37,000  Level Winnipeg Center
Wed 10:48:43 PM 50.1833 -101.5667 106° East 490 564 37,000  Level Winnipeg Center
Wed 10:49:43 PM 50.1667 -101.3500 97° East 490 564 37,000  Level Winnipeg Center
Wed 10:50:43 PM 50.1167 -101.1167 108° East 490 564 37,000  Level Winnipeg Center
Wed 10:51:43 PM 50.1167 -100.9333 90° East 490 564 37,000  Level Winnipeg Center
Wed 10:52:43 PM 50.0667 -100.7167 110° East 490 564 37,000  Level Winnipeg Center
Wed 10:53:43 PM 50.0500 -100.5167 97° East 490 564 37,000  Level Winnipeg Center
Wed 10:54:43 PM 50.0333 -100.3000 97° East 490 564 37,000  Level Winnipeg Center
Wed 10:55:43 PM 49.9833 -100.0833 110° East 490 564 37,000  Level Winnipeg Center
Wed 10:56:43 PM 49.9833 -99.9000 90° East 490 564 37,000  Level Winnipeg Center
Wed 10:57:43 PM 49.9500 -99.6667 102° East 490 564 37,000  Level Winnipeg Center
Wed 10:58:43 PM 49.9167 -99.4833 106° East 480 552 37,000  Level Winnipeg Center
Wed 10:59:43 PM 49.8833 -99.2833 104° East 480 552 37,000  Level Winnipeg Center
Wed 11:00:43 PM 49.8833 -99.0667 90° East 470 541 37,000  Level Winnipeg Center
Wed 11:01:43 PM 49.8500 -98.8667 104° East 480 552 37,000  Level Winnipeg Center
Wed 11:02:43 PM 49.8167 -98.6833 106° East 480 552 37,000  Level Winnipeg Center
Wed 11:03:43 PM 49.8000 -98.4667 97° East 480 552 37,000  Level Winnipeg Center
Wed 11:04:43 PM 49.7667 -98.2667 104° East 480 552 37,000  Level Winnipeg Center
Wed 11:05:43 PM 49.7333 -98.0500 103° East 490 564 37,000  Level Winnipeg Center
Wed 11:06:43 PM 49.7167 -97.8500 97° East 490 564 37,000  Level Winnipeg Center
Wed 11:07:43 PM 49.7000 -97.6333 97° East 490 564 37,000  Level Winnipeg Center
Wed 11:08:43 PM 49.6667 -97.4333 104° East 490 564 37,000  Level Winnipeg Center
Wed 11:09:43 PM 49.6333 -97.2167 103° East 490 564 37,000  Level Winnipeg Center
Wed 11:10:43 PM 49.6000 -97.0500 107° East 490 564 37,000  Level Winnipeg Center
Wed 11:11:43 PM 49.5833 -96.8167 96° East 490 564 37,000  Level Winnipeg Center
Wed 11:12:43 PM 49.5500 -96.6333 106° East 490 564 37,000  Level Winnipeg Center
Wed 11:13:43 PM 49.5167 -96.4000 102° East 480 552 37,000  Level Winnipeg Center
Wed 11:14:43 PM 49.4833 -96.2167 106° East 480 552 37,000  Level Winnipeg Center
Wed 11:15:43 PM 49.4500 -96.0167 104° East 480 552 37,000  Level Winnipeg Center
Wed 11:16:43 PM 49.4167 -95.8167 104° East 480 552 37,000  Level Winnipeg Center
Wed 11:17:43 PM 49.3833 -95.6333 106° East 480 552 37,000  Level Winnipeg Center
Wed 11:18:43 PM 49.3667 -95.4333 97° East 480 552 37,000  Level Winnipeg Center
Wed 11:19:43 PM 49.3333 -95.2167 103° East 480 552 37,000  Level Winnipeg Center
Wed 11:20:43 PM 49.3000 -95.0167 104° East 480 552 37,000  Level Winnipeg Center
Wed 11:21:43 PM 49.2667 -94.8167 104° East 480 552 37,000  Level Winnipeg Center
Wed 11:22:43 PM 49.2333 -94.6333 105° East 490 564 37,000  Level Winnipeg Center
Wed 11:23:43 PM 49.2000 -94.4000 102° East 480 552 37,000  Level Winnipeg Center
Wed 11:24:43 PM 49.1667 -94.2333 107° East 480 552 37,000  Level Winnipeg Center
Wed 11:25:43 PM 49.1333 -94.0333 104° East 480 552 37,000  Level Winnipeg Center
Wed 11:26:43 PM 49.1000 -93.8167 103° East 480 552 37,000  Level Winnipeg Center
Wed 11:27:43 PM 49.0667 -93.6167 104° East 490 564 37,000  Level Winnipeg Center
Wed 11:28:43 PM 49.0167 -93.4167 111° Southeast 480 552 37,000  Level Winnipeg Center
Wed 11:29:43 PM 49.0000 -93.2167 97° East 490 564 37,000  Level Winnipeg Center
Wed 11:30:43 PM 48.9500 -93.0500 114° Southeast 480 552 37,000  Level Winnipeg Center
Wed 11:31:43 PM 48.9167 -92.8500 104° East 480 552 37,000  Level Winnipeg Center
Wed 11:32:43 PM 48.9000 -92.6333 97° East 480 552 37,000  Level Winnipeg Center
Wed 11:33:43 PM 48.8500 -92.4500 112° Southeast 480 552 37,000  Level Winnipeg Center
Wed 11:34:43 PM 48.8167 -92.2500 104° East 480 552 37,000  Level Winnipeg Center
Wed 11:35:43 PM 48.7667 -92.0500 111° Southeast 480 552 37,000  Level Winnipeg Center
Wed 11:36:43 PM 48.7333 -91.8500 104° East 480 552 37,000  Level Winnipeg Center
Wed 11:37:43 PM 48.7000 -91.6667 105° East 480 552 37,000  Level Winnipeg Center
Wed 11:38:43 PM 48.6500 -91.4500 109° East 480 552 37,000  Level Winnipeg Center
Wed 11:39:43 PM 48.6333 -91.2667 98° East 490 564 37,000  Level Winnipeg Center
Wed 11:40:43 PM 48.5833 -91.0500 109° East 480 552 37,000  Level Winnipeg Center
Wed 11:41:43 PM 48.5333 -90.8833 114° Southeast 480 552 37,000  Level Winnipeg Center
Wed 11:42:43 PM 48.5000 -90.6833 104° East 490 564 37,000  Level Winnipeg Center
Wed 11:43:43 PM 48.4667 -90.4833 104° East 490 564 37,000  Level Winnipeg Center
Wed 11:44:43 PM 48.4167 -90.2833 111° Southeast 490 564 37,000  Level Winnipeg Center
Wed 11:45:43 PM 48.3833 -90.0833 104° East 490 564 37,000  Level Winnipeg Center
Wed 11:46:43 PM 48.3500 -89.9000 105° East 490 564 37,000  Level Winnipeg Center
Wed 11:47:43 PM 48.3000 -89.7000 111° Southeast 490 564 37,000  Level Winnipeg Center
Wed 11:48:43 PM 48.2500 -89.5333 114° Southeast 480 552 37,000  Level Winnipeg Center
Wed 11:49:43 PM 48.2167 -89.3333 104° East 480 552 37,000  Level Winnipeg Center
Wed 11:50:43 PM 48.1500 -89.1500 119° Southeast 480 552 37,000  Level Winnipeg Center
Wed 11:51:43 PM 48.0833 -88.9500 116° Southeast 480 552 37,000  Level Winnipeg Center
Wed 11:52:43 PM 48.0333 -88.7833 114° Southeast 490 564 37,000  Level Winnipeg Center
Wed 11:53:43 PM 47.9667 -88.6167 121° Southeast 490 564 37,000  Level Winnipeg Center
Wed 11:54:43 PM 47.9167 -88.4333 112° Southeast 490 564 37,000  Level Winnipeg Center
Wed 11:55:46 PM 47.8500 -88.2833 123° Southeast 490 564 37,000  Level Toronto Center
Wed 11:56:46 PM 47.8000 -88.1167 114° Southeast 490 564 37,000  Level Toronto Center
Wed 11:57:46 PM 47.7333 -87.9167 116° Southeast 490 564 37,000  Level Toronto Center
Wed 11:58:46 PM 47.6667 -87.7500 121° Southeast 490 564 37,000  Level Toronto Center
Wed 11:59:46 PM 47.6000 -87.5667 118° Southeast 490 564 37,000  Level Toronto Center
Thu 12:00:46 AM 47.5500 -87.3833 112° Southeast 490 564 37,000  Level Toronto Center
Thu 12:01:46 AM 47.4833 -87.2333 123° Southeast 490 564 37,000  Level Toronto Center
Thu 12:02:46 AM 47.4167 -87.0500 118° Southeast 480 552 37,000  Level Toronto Center
Thu 12:03:46 AM 47.3667 -86.8667 112° Southeast 480 552 37,000  Level Toronto Center
Thu 12:04:46 AM 47.2833 -86.6833 124° Southeast 480 552 37,000  Level Toronto Center
Thu 12:05:46 AM 47.2333 -86.5167 114° Southeast 480 552 37,000  Level Toronto Center
Thu 12:06:46 AM 47.1667 -86.3333 118° Southeast 480 552 37,000  Level Toronto Center
Thu 12:07:46 AM 47.1000 -86.1667 120° Southeast 480 552 37,000  Level Toronto Center
Thu 12:09:46 AM 46.9667 -85.8167 119° Southeast 480 552 37,000  Level Toronto Center
Thu 12:10:46 AM 46.9167 -85.6667 116° Southeast 490 564 37,000  Level Toronto Center
Thu 12:11:46 AM 46.8500 -85.4833 118° Southeast 480 552 37,000  Level Toronto Center
Thu 12:12:46 AM 46.7833 -85.3000 118° Southeast 490 564 37,000  Level Toronto Center
Thu 12:13:46 AM 46.7167 -85.1333 120° Southeast 490 564 37,000  Level Toronto Center
Thu 12:14:46 AM 46.6500 -84.9500 118° Southeast 490 564 37,000  Level Toronto Center
Thu 12:15:46 AM 46.5833 -84.7833 120° Southeast 490 564 37,000  Level Toronto Center
Thu 12:16:46 AM 46.5333 -84.6167 114° Southeast 480 552 37,000  Level Toronto Center
Thu 12:17:46 AM 46.4500 -84.4500 126° Southeast 490 564 37,000  Level Toronto Center
Thu 12:18:46 AM 46.3833 -84.2667 118° Southeast 480 552 37,000  Level Toronto Center
Thu 12:19:46 AM 46.3333 -84.1000 113° Southeast 490 564 37,000  Level Toronto Center
Thu 12:20:46 AM 46.2667 -83.9333 120° Southeast 490 564 37,000  Level Toronto Center
Thu 12:21:46 AM 46.2167 -83.7500 111° Southeast 490 564 37,000  Level Toronto Center
Thu 12:22:46 AM 46.1500 -83.5833 120° Southeast 480 552 37,000  Level Toronto Center
Thu 12:23:46 AM 46.0833 -83.4000 118° Southeast 490 564 37,000  Level Toronto Center
Thu 12:24:46 AM 46.0333 -83.2333 113° Southeast 490 564 37,000  Level Toronto Center
Thu 12:25:46 AM 45.9667 -83.0667 120° Southeast 480 552 37,000  Level Toronto Center
Thu 12:26:46 AM 45.9000 -82.8833 118° Southeast 480 552 37,000  Level Toronto Center
Thu 12:27:46 AM 45.8333 -82.7167 120° Southeast 480 552 37,000  Level Toronto Center
Thu 12:28:46 AM 45.7833 -82.5500 113° Southeast 480 552 37,000  Level Toronto Center
Thu 12:29:46 AM 45.7167 -82.3833 120° Southeast 480 552 37,000  Level Toronto Center
Thu 12:30:46 AM 45.6500 -82.2167 120° Southeast 490 564 37,000  Level Toronto Center
Thu 12:31:46 AM 45.5833 -82.0333 117° Southeast 480 552 37,000  Level Toronto Center
Thu 12:32:46 AM 45.5333 -81.8667 113° Southeast 480 552 37,000  Level Toronto Center
Thu 12:33:46 AM 45.4667 -81.7000 120° Southeast 480 552 37,000  Level Toronto Center
Thu 12:34:46 AM 45.4000 -81.5333 120° Southeast 480 552 37,000 -450 Level Toronto Center
Thu 12:35:46 AM 45.3333 -81.3667 120° Southeast 480 552 36,100 -950 Descending Toronto Center
Thu 12:36:46 AM 45.2667 -81.2000 120° Southeast 480 552 35,100 -550 Descending Toronto Center
Thu 12:37:46 AM 45.1833 -81.0833 135° Southeast 470 541 35,000 -50 Descending Toronto Center
Thu 12:38:46 AM 45.0667 -80.9833 149° Southeast 460 529 35,000  Level Toronto Center
Thu 12:39:46 AM 44.9500 -80.8833 149° Southeast 460 529 35,000 -400 Level Toronto Center
Thu 12:40:46 AM 44.8667 -80.7833 140° Southeast 450 518 34,200 -1,700 Descending Toronto Center
Thu 12:41:46 AM 44.7667 -80.6833 145° Southeast 440 506 31,600 -2,650 Descending Toronto Center
Thu 12:42:46 AM 44.6667 -80.6000 149° Southeast 450 518 28,900 -2,650 Descending Toronto Center
Thu 12:43:46 AM 44.5667 -80.5000 145° Southeast 440 506 26,300 -2,600 Descending Toronto Center
Thu 12:44:46 AM 44.4667 -80.4333 155° Southeast 420 483 23,700 -2,550 Descending Toronto Center
Thu 12:45:46 AM 44.3667 -80.3333 144° Southeast 410 472 21,200 -2,500 Descending Toronto Center
Thu 12:46:46 AM 44.2667 -80.2667 154° Southeast 400 460 18,700 -2,450 Descending Toronto Center
Thu 12:47:46 AM 44.1833 -80.1667 139° Southeast 390 449 16,300 -2,500 Descending Toronto Center
Thu 12:48:46 AM 44.1000 -80.1000 150° Southeast 380 437 13,700 -2,000 Descending Toronto Center
Thu 12:49:46 AM 44.0167 -80.0000 139° Southeast 360 414 12,300 -1,300 Descending Toronto Center
Thu 12:50:46 AM 43.9500 -79.9333 144° Southeast 330 380 11,100 -1,350 Descending Toronto Center
Thu 12:51:46 AM 43.8833 -79.8667 144° Southeast 310 357 9,600 -1,550 Descending Toronto Center
Thu 12:52:46 AM 43.8167 -79.8000 144° Southeast 300 345 8,000 -1,500 Descending Toronto Center
Thu 12:53:46 AM 43.7667 -79.7000 125° Southeast 280 322 6,600 -1,250 Descending Toronto Center
Thu 12:54:46 AM 43.7833 -79.6333 71° East 250 288 5,500 -1,000 Descending Toronto Center
Thu 12:55:46 AM 43.8333 -79.5667 44° Northeast 230 265 4,600 -750 Descending Toronto Center
Thu 12:56:46 AM 43.8333 -79.4667 90° East 240 276 4,000 -600 Descending Toronto Center
Thu 12:57:46 AM 43.8000 -79.4167 133° Southeast 220 253 3,400 -500 Descending Toronto Center
Thu 12:58:46 AM 43.7667 -79.4500 216° Southwest 180 207 3,000 -500 Descending Toronto Center
Thu 12:59:46 AM 43.7333 -79.5000 227° Southwest 160 184 2,400 -700 Descending Toronto Center
Thu 01:00:46 AM 43.7000 -79.5167 200° South 150 173 1,600 -800 Descending Toronto Center
Thu 01:01:46 AM 43.6833 -79.5667 245° Southwest 130 150 800 -550 Descending Toronto Center
Thu 01:02:46 AM 43.6667 -79.5833 216° Southwest 100 115 500 -300 Descending Toronto Center

Login

Don't have an account? Register now (free) for customized features, flight alerts, and more!